Demopolis, Alabama
Current Conditions -  °F | °C
As of 12:35 PM on Saturday 25 Oct 2014 (Local Time) from KDYA Reporting Station
Clear Clear  
Wind Chill: 75°   Ceiling: Unl
Heat Index: 75°   Visibility: 10mi
Dew Point: 53°   Wind: 7mph
Humidity: 46%   Direction: 20°NNE
Pressure: 30.11"   Gusts: NA
Location:  32.5°N, 87.84°W
Report Text: KDYA 251735Z AUTO 02006KT 10SM CLR 24/11 A3011 RMK AO2 T02370114
Loading
Personal Weather Stations






























Interactive Weather Map
Tropical Storm Tracking
New forecast layout! Learn more

10-Day Weather Forecast

Advertisements
Track Severe Weather on mobile